sensor_id;sensor_type;location;lat;lon;timestamp;P1;durP1;ratioP1;P2;durP2;ratioP2
62437;SDS011;48481;0.000;0.000;2023-04-29T00:00:22;15.35;;;8.80;;
62437;SDS011;48481;0.000;0.000;2023-04-29T00:02:48;13.75;;;8.95;;
62437;SDS011;48481;0.000;0.000;2023-04-29T00:05:13;18.00;;;9.68;;
62437;SDS011;48481;0.000;0.000;2023-04-29T00:07:39;12.07;;;8.93;;
62437;SDS011;48481;0.000;0.000;2023-04-29T00:10:04;14.20;;;9.55;;
62437;SDS011;48481;0.000;0.000;2023-04-29T00:12:30;16.13;;;9.80;;
62437;SDS011;48481;0.000;0.000;2023-04-29T00:14:57;13.45;;;9.65;;
62437;SDS011;48481;0.000;0.000;2023-04-29T00:17:23;17.23;;;10.50;;
62437;SDS011;48481;0.000;0.000;2023-04-29T00:19:48;17.75;;;10.18;;
62437;SDS011;48481;0.000;0.000;2023-04-29T00:22:14;16.88;;;10.23;;
62437;SDS011;48481;0.000;0.000;2023-04-29T00:24:40;17.10;;;9.98;;
62437;SDS011;48481;0.000;0.000;2023-04-29T00:27:05;16.85;;;10.23;;
62437;SDS011;48481;0.000;0.000;2023-04-29T00:29:31;21.58;;;10.13;;
62437;SDS011;48481;0.000;0.000;2023-04-29T00:31:56;15.38;;;10.05;;
62437;SDS011;48481;0.000;0.000;2023-04-29T00:34:22;14.82;;;9.23;;
62437;SDS011;48481;0.000;0.000;2023-04-29T00:36:48;18.40;;;10.10;;
62437;SDS011;48481;0.000;0.000;2023-04-29T00:39:13;16.13;;;9.88;;
62437;SDS011;48481;0.000;0.000;2023-04-29T00:41:39;16.13;;;10.02;;
62437;SDS011;48481;0.000;0.000;2023-04-29T00:44:04;16.50;;;11.90;;
62437;SDS011;48481;0.000;0.000;2023-04-29T00:46:30;15.05;;;11.13;;
62437;SDS011;48481;0.000;0.000;2023-04-29T00:48:56;20.65;;;12.13;;
62437;SDS011;48481;0.000;0.000;2023-04-29T00:51:21;17.63;;;11.77;;
62437;SDS011;48481;0.000;0.000;2023-04-29T00:53:47;23.45;;;11.93;;
62437;SDS011;48481;0.000;0.000;2023-04-29T00:56:12;18.13;;;11.60;;
62437;SDS011;48481;0.000;0.000;2023-04-29T00:58:39;21.35;;;11.02;;
62437;SDS011;48481;0.000;0.000;2023-04-29T01:01:05;24.88;;;13.30;;
62437;SDS011;48481;0.000;0.000;2023-04-29T01:03:31;12.63;;;10.35;;
62437;SDS011;48481;0.000;0.000;2023-04-29T01:09:26;22.92;;;12.05;;
62437;SDS011;48481;0.000;0.000;2023-04-29T01:15:21;20.58;;;11.77;;
62437;SDS011;48481;0.000;0.000;2023-04-29T01:20:24;19.95;;;11.07;;
62437;SDS011;48481;0.000;0.000;2023-04-29T01:22:51;16.05;;;11.20;;
62437;SDS011;48481;0.000;0.000;2023-04-29T01:25:17;21.48;;;12.10;;
62437;SDS011;48481;0.000;0.000;2023-04-29T01:27:47;18.83;;;10.88;;
62437;SDS011;48481;0.000;0.000;2023-04-29T01:41:09;18.00;;;11.23;;
62437;SDS011;48481;0.000;0.000;2023-04-29T01:43:39;20.55;;;11.98;;
62437;SDS011;48481;0.000;0.000;2023-04-29T01:46:05;23.65;;;12.35;;
62437;SDS011;48481;0.000;0.000;2023-04-29T01:48:33;22.67;;;11.98;;
62437;SDS011;48481;0.000;0.000;2023-04-29T01:51:00;21.63;;;11.95;;
62437;SDS011;48481;0.000;0.000;2023-04-29T01:53:26;21.73;;;11.95;;
62437;SDS011;48481;0.000;0.000;2023-04-29T01:55:51;24.13;;;12.43;;
62437;SDS011;48481;0.000;0.000;2023-04-29T01:58:17;22.60;;;13.15;;
62437;SDS011;48481;0.000;0.000;2023-04-29T02:00:42;21.00;;;12.32;;
62437;SDS011;48481;0.000;0.000;2023-04-29T02:03:08;21.95;;;12.40;;
62437;SDS011;48481;0.000;0.000;2023-04-29T02:05:33;19.95;;;12.88;;
62437;SDS011;48481;0.000;0.000;2023-04-29T02:07:59;21.50;;;11.40;;
62437;SDS011;48481;0.000;0.000;2023-04-29T02:10:25;23.20;;;11.68;;
62437;SDS011;48481;0.000;0.000;2023-04-29T02:12:52;19.48;;;12.45;;
62437;SDS011;48481;0.000;0.000;2023-04-29T02:15:17;17.27;;;11.73;;
62437;SDS011;48481;0.000;0.000;2023-04-29T02:17:43;22.27;;;12.77;;
62437;SDS011;48481;0.000;0.000;2023-04-29T02:20:09;24.30;;;12.60;;
62437;SDS011;48481;0.000;0.000;2023-04-29T02:22:34;23.73;;;12.30;;
62437;SDS011;48481;0.000;0.000;2023-04-29T02:25:00;24.23;;;12.10;;
62437;SDS011;48481;0.000;0.000;2023-04-29T02:27:26;19.23;;;12.43;;
62437;SDS011;48481;0.000;0.000;2023-04-29T02:29:51;25.75;;;13.02;;
62437;SDS011;48481;0.000;0.000;2023-04-29T02:32:16;21.23;;;12.60;;
62437;SDS011;48481;0.000;0.000;2023-04-29T02:34:44;24.77;;;12.30;;
62437;SDS011;48481;0.000;0.000;2023-04-29T02:37:10;19.05;;;12.05;;
62437;SDS011;48481;0.000;0.000;2023-04-29T02:39:35;19.75;;;13.38;;
62437;SDS011;48481;0.000;0.000;2023-04-29T02:42:00;16.45;;;11.27;;
62437;SDS011;48481;0.000;0.000;2023-04-29T02:44:26;27.42;;;14.40;;
62437;SDS011;48481;0.000;0.000;2023-04-29T02:46:52;19.25;;;13.50;;
62437;SDS011;48481;0.000;0.000;2023-04-29T02:49:17;22.88;;;12.40;;
62437;SDS011;48481;0.000;0.000;2023-04-29T02:51:43;19.52;;;12.25;;
62437;SDS011;48481;0.000;0.000;2023-04-29T02:54:08;20.25;;;12.98;;
62437;SDS011;48481;0.000;0.000;2023-04-29T02:56:35;24.50;;;13.43;;
62437;SDS011;48481;0.000;0.000;2023-04-29T02:59:01;23.02;;;12.52;;
62437;SDS011;48481;0.000;0.000;2023-04-29T03:01:26;22.38;;;13.25;;
62437;SDS011;48481;0.000;0.000;2023-04-29T03:03:51;21.58;;;12.55;;
62437;SDS011;48481;0.000;0.000;2023-04-29T03:06:17;20.08;;;12.98;;
62437;SDS011;48481;0.000;0.000;2023-04-29T03:08:43;24.65;;;12.88;;
62437;SDS011;48481;0.000;0.000;2023-04-29T03:11:08;20.90;;;11.80;;
62437;SDS011;48481;0.000;0.000;2023-04-29T03:13:33;23.02;;;11.65;;
62437;SDS011;48481;0.000;0.000;2023-04-29T03:15:59;22.13;;;13.13;;
62437;SDS011;48481;0.000;0.000;2023-04-29T03:18:25;26.70;;;12.95;;
62437;SDS011;48481;0.000;0.000;2023-04-29T03:20:50;23.48;;;12.35;;
62437;SDS011;48481;0.000;0.000;2023-04-29T03:23:15;26.17;;;13.23;;
62437;SDS011;48481;0.000;0.000;2023-04-29T03:25:41;25.80;;;13.18;;
62437;SDS011;48481;0.000;0.000;2023-04-29T03:28:06;20.42;;;12.77;;
62437;SDS011;48481;0.000;0.000;2023-04-29T03:30:31;21.55;;;12.52;;
62437;SDS011;48481;0.000;0.000;2023-04-29T03:32:57;23.48;;;13.52;;
62437;SDS011;48481;0.000;0.000;2023-04-29T03:35:22;22.15;;;12.60;;
62437;SDS011;48481;0.000;0.000;2023-04-29T03:37:48;19.23;;;12.48;;
62437;SDS011;48481;0.000;0.000;2023-04-29T03:40:13;22.48;;;12.50;;
62437;SDS011;48481;0.000;0.000;2023-04-29T03:42:38;19.00;;;12.32;;
62437;SDS011;48481;0.000;0.000;2023-04-29T03:45:04;23.42;;;12.85;;
62437;SDS011;48481;0.000;0.000;2023-04-29T03:47:30;19.67;;;12.75;;
62437;SDS011;48481;0.000;0.000;2023-04-29T03:49:55;26.98;;;12.70;;
62437;SDS011;48481;0.000;0.000;2023-04-29T03:52:21;21.70;;;12.13;;
62437;SDS011;48481;0.000;0.000;2023-04-29T03:54:46;22.10;;;13.00;;
62437;SDS011;48481;0.000;0.000;2023-04-29T03:57:11;17.63;;;11.98;;
62437;SDS011;48481;0.000;0.000;2023-04-29T03:59:37;18.75;;;12.25;;
62437;SDS011;48481;0.000;0.000;2023-04-29T04:02:02;18.10;;;11.93;;
62437;SDS011;48481;0.000;0.000;2023-04-29T04:04:27;16.67;;;10.68;;
62437;SDS011;48481;0.000;0.000;2023-04-29T04:06:53;22.95;;;11.73;;
62437;SDS011;48481;0.000;0.000;2023-04-29T04:09:18;14.32;;;9.98;;
62437;SDS011;48481;0.000;0.000;2023-04-29T04:11:43;16.38;;;10.85;;
62437;SDS011;48481;0.000;0.000;2023-04-29T04:14:09;19.40;;;13.05;;
62437;SDS011;48481;0.000;0.000;2023-04-29T04:16:35;23.13;;;11.13;;
62437;SDS011;48481;0.000;0.000;2023-04-29T04:19:00;21.45;;;10.85;;
62437;SDS011;48481;0.000;0.000;2023-04-29T04:21:26;14.52;;;10.75;;
62437;SDS011;48481;0.000;0.000;2023-04-29T04:23:51;21.30;;;11.75;;
62437;SDS011;48481;0.000;0.000;2023-04-29T04:26:17;16.30;;;10.65;;
62437;SDS011;48481;0.000;0.000;2023-04-29T04:28:42;19.10;;;11.82;;
62437;SDS011;48481;0.000;0.000;2023-04-29T04:31:08;17.50;;;11.23;;
62437;SDS011;48481;0.000;0.000;2023-04-29T04:33:33;20.48;;;11.48;;
62437;SDS011;48481;0.000;0.000;2023-04-29T04:35:58;19.05;;;11.10;;
62437;SDS011;48481;0.000;0.000;2023-04-29T04:38:24;20.52;;;11.10;;
62437;SDS011;48481;0.000;0.000;2023-04-29T04:40:50;19.23;;;11.70;;
62437;SDS011;48481;0.000;0.000;2023-04-29T04:43:16;18.33;;;10.70;;
62437;SDS011;48481;0.000;0.000;2023-04-29T04:45:41;20.17;;;11.63;;
62437;SDS011;48481;0.000;0.000;2023-04-29T04:48:07;17.35;;;10.85;;
62437;SDS011;48481;0.000;0.000;2023-04-29T04:50:32;18.60;;;10.27;;
62437;SDS011;48481;0.000;0.000;2023-04-29T04:52:57;18.92;;;11.63;;
62437;SDS011;48481;0.000;0.000;2023-04-29T04:55:23;17.10;;;11.77;;
62437;SDS011;48481;0.000;0.000;2023-04-29T04:57:48;19.98;;;11.35;;
62437;SDS011;48481;0.000;0.000;2023-04-29T05:00:14;15.43;;;9.82;;
62437;SDS011;48481;0.000;0.000;2023-04-29T05:02:40;17.60;;;10.48;;
62437;SDS011;48481;0.000;0.000;2023-04-29T05:05:06;13.90;;;9.45;;
62437;SDS011;48481;0.000;0.000;2023-04-29T05:07:31;22.48;;;10.10;;
62437;SDS011;48481;0.000;0.000;2023-04-29T05:09:59;16.90;;;11.15;;
62437;SDS011;48481;0.000;0.000;2023-04-29T05:12:26;14.80;;;9.98;;
62437;SDS011;48481;0.000;0.000;2023-04-29T05:14:54;15.65;;;9.55;;
62437;SDS011;48481;0.000;0.000;2023-04-29T05:17:20;18.88;;;9.63;;
62437;SDS011;48481;0.000;0.000;2023-04-29T05:19:46;14.40;;;9.07;;
62437;SDS011;48481;0.000;0.000;2023-04-29T05:22:11;16.50;;;9.32;;
62437;SDS011;48481;0.000;0.000;2023-04-29T05:24:36;14.02;;;9.30;;
62437;SDS011;48481;0.000;0.000;2023-04-29T05:27:02;16.05;;;8.38;;
62437;SDS011;48481;0.000;0.000;2023-04-29T05:29:28;12.63;;;9.13;;
62437;SDS011;48481;0.000;0.000;2023-04-29T05:31:53;14.45;;;8.65;;
62437;SDS011;48481;0.000;0.000;2023-04-29T05:34:19;16.92;;;9.48;;
62437;SDS011;48481;0.000;0.000;2023-04-29T05:36:44;14.05;;;8.82;;
62437;SDS011;48481;0.000;0.000;2023-04-29T05:39:10;17.48;;;9.60;;
62437;SDS011;48481;0.000;0.000;2023-04-29T05:41:36;11.80;;;8.35;;
62437;SDS011;48481;0.000;0.000;2023-04-29T05:44:01;15.35;;;8.57;;
62437;SDS011;48481;0.000;0.000;2023-04-29T05:46:26;13.07;;;8.23;;
62437;SDS011;48481;0.000;0.000;2023-04-29T05:48:52;14.35;;;8.88;;
62437;SDS011;48481;0.000;0.000;2023-04-29T05:51:17;12.23;;;7.72;;
62437;SDS011;48481;0.000;0.000;2023-04-29T05:53:43;13.63;;;8.30;;
62437;SDS011;48481;0.000;0.000;2023-04-29T05:56:08;12.30;;;7.50;;
62437;SDS011;48481;0.000;0.000;2023-04-29T05:58:34;17.08;;;9.73;;
62437;SDS011;48481;0.000;0.000;2023-04-29T06:00:59;11.18;;;7.63;;
62437;SDS011;48481;0.000;0.000;2023-04-29T06:03:25;15.77;;;8.57;;
62437;SDS011;48481;0.000;0.000;2023-04-29T06:05:51;14.35;;;8.00;;
62437;SDS011;48481;0.000;0.000;2023-04-29T06:08:17;12.65;;;7.93;;
62437;SDS011;48481;0.000;0.000;2023-04-29T06:10:42;12.13;;;6.88;;
62437;SDS011;48481;0.000;0.000;2023-04-29T06:13:08;15.68;;;7.78;;
62437;SDS011;48481;0.000;0.000;2023-04-29T06:15:33;13.40;;;7.85;;
62437;SDS011;48481;0.000;0.000;2023-04-29T06:17:59;11.90;;;7.18;;
62437;SDS011;48481;0.000;0.000;2023-04-29T06:20:24;8.73;;;7.03;;
62437;SDS011;48481;0.000;0.000;2023-04-29T06:22:50;7.80;;;6.93;;
62437;SDS011;48481;0.000;0.000;2023-04-29T06:25:15;14.70;;;7.45;;
62437;SDS011;48481;0.000;0.000;2023-04-29T06:27:41;17.23;;;8.00;;
62437;SDS011;48481;0.000;0.000;2023-04-29T06:30:06;9.38;;;6.82;;
62437;SDS011;48481;0.000;0.000;2023-04-29T06:32:32;9.75;;;7.85;;
62437;SDS011;48481;0.000;0.000;2023-04-29T06:34:57;11.73;;;6.43;;
62437;SDS011;48481;0.000;0.000;2023-04-29T06:37:23;10.07;;;6.22;;
62437;SDS011;48481;0.000;0.000;2023-04-29T06:39:48;10.02;;;6.57;;
62437;SDS011;48481;0.000;0.000;2023-04-29T06:42:13;14.07;;;6.53;;
62437;SDS011;48481;0.000;0.000;2023-04-29T06:44:39;10.25;;;6.03;;
62437;SDS011;48481;0.000;0.000;2023-04-29T06:47:04;7.20;;;6.45;;
62437;SDS011;48481;0.000;0.000;2023-04-29T06:49:30;16.40;;;7.40;;
62437;SDS011;48481;0.000;0.000;2023-04-29T06:51:55;8.80;;;6.40;;
62437;SDS011;48481;0.000;0.000;2023-04-29T06:54:21;14.93;;;5.43;;
62437;SDS011;48481;0.000;0.000;2023-04-29T06:56:46;11.88;;;5.93;;
62437;SDS011;48481;0.000;0.000;2023-04-29T06:59:12;13.88;;;6.43;;
62437;SDS011;48481;0.000;0.000;2023-04-29T07:01:39;11.80;;;7.88;;
62437;SDS011;48481;0.000;0.000;2023-04-29T07:04:04;9.38;;;6.07;;
62437;SDS011;48481;0.000;0.000;2023-04-29T07:06:30;14.68;;;6.47;;
62437;SDS011;48481;0.000;0.000;2023-04-29T07:08:55;9.02;;;5.38;;
62437;SDS011;48481;0.000;0.000;2023-04-29T07:11:21;11.35;;;5.78;;
62437;SDS011;48481;0.000;0.000;2023-04-29T07:13:48;12.90;;;7.45;;
62437;SDS011;48481;0.000;0.000;2023-04-29T07:16:15;11.15;;;5.80;;
62437;SDS011;48481;0.000;0.000;2023-04-29T07:18:42;9.88;;;5.32;;
62437;SDS011;48481;0.000;0.000;2023-04-29T07:21:08;9.43;;;5.50;;
62437;SDS011;48481;0.000;0.000;2023-04-29T07:23:33;10.77;;;6.43;;
62437;SDS011;48481;0.000;0.000;2023-04-29T07:26:07;9.57;;;5.05;;
62437;SDS011;48481;0.000;0.000;2023-04-29T07:28:36;7.95;;;5.22;;
62437;SDS011;48481;0.000;0.000;2023-04-29T07:31:01;8.48;;;4.82;;
62437;SDS011;48481;0.000;0.000;2023-04-29T07:33:26;7.25;;;4.78;;
62437;SDS011;48481;0.000;0.000;2023-04-29T07:35:52;10.20;;;5.00;;
62437;SDS011;48481;0.000;0.000;2023-04-29T07:38:18;7.15;;;5.30;;
62437;SDS011;48481;0.000;0.000;2023-04-29T07:40:45;9.10;;;4.75;;
62437;SDS011;48481;0.000;0.000;2023-04-29T07:43:10;5.68;;;3.90;;
62437;SDS011;48481;0.000;0.000;2023-04-29T07:45:36;5.05;;;4.30;;
62437;SDS011;48481;0.000;0.000;2023-04-29T07:48:02;13.65;;;4.47;;
62437;SDS011;48481;0.000;0.000;2023-04-29T07:50:27;7.10;;;4.47;;
62437;SDS011;48481;0.000;0.000;2023-04-29T07:52:52;4.68;;;3.95;;
62437;SDS011;48481;0.000;0.000;2023-04-29T07:55:19;11.65;;;4.85;;
62437;SDS011;48481;0.000;0.000;2023-04-29T07:57:44;7.43;;;4.72;;
62437;SDS011;48481;0.000;0.000;2023-04-29T08:00:10;9.18;;;4.53;;
62437;SDS011;48481;0.000;0.000;2023-04-29T08:02:36;8.93;;;5.07;;
62437;SDS011;48481;0.000;0.000;2023-04-29T08:05:01;9.52;;;4.50;;
62437;SDS011;48481;0.000;0.000;2023-04-29T08:07:27;4.60;;;4.00;;
62437;SDS011;48481;0.000;0.000;2023-04-29T08:09:52;5.32;;;4.82;;
62437;SDS011;48481;0.000;0.000;2023-04-29T08:12:18;10.27;;;4.38;;
62437;SDS011;48481;0.000;0.000;2023-04-29T08:14:43;5.57;;;4.63;;
62437;SDS011;48481;0.000;0.000;2023-04-29T08:17:09;6.13;;;4.20;;
62437;SDS011;48481;0.000;0.000;2023-04-29T08:19:34;6.43;;;4.32;;
62437;SDS011;48481;0.000;0.000;2023-04-29T08:21:59;11.00;;;4.20;;
62437;SDS011;48481;0.000;0.000;2023-04-29T08:24:25;6.10;;;4.38;;
62437;SDS011;48481;0.000;0.000;2023-04-29T08:26:50;8.50;;;4.57;;
62437;SDS011;48481;0.000;0.000;2023-04-29T08:29:17;8.57;;;4.88;;
62437;SDS011;48481;0.000;0.000;2023-04-29T08:31:42;18.80;;;4.97;;
62437;SDS011;48481;0.000;0.000;2023-04-29T08:34:09;13.68;;;5.82;;
62437;SDS011;48481;0.000;0.000;2023-04-29T08:36:35;5.55;;;4.40;;
62437;SDS011;48481;0.000;0.000;2023-04-29T08:39:02;11.27;;;4.50;;
62437;SDS011;48481;0.000;0.000;2023-04-29T08:41:28;5.63;;;4.70;;
62437;SDS011;48481;0.000;0.000;2023-04-29T08:43:57;7.03;;;4.97;;
62437;SDS011;48481;0.000;0.000;2023-04-29T08:46:24;8.05;;;5.03;;
62437;SDS011;48481;0.000;0.000;2023-04-29T08:48:50;6.80;;;4.80;;
62437;SDS011;48481;0.000;0.000;2023-04-29T08:51:17;10.10;;;4.65;;
62437;SDS011;48481;0.000;0.000;2023-04-29T08:53:42;4.82;;;4.00;;
62437;SDS011;48481;0.000;0.000;2023-04-29T08:56:08;5.13;;;4.63;;
62437;SDS011;48481;0.000;0.000;2023-04-29T08:58:40;8.02;;;4.75;;
62437;SDS011;48481;0.000;0.000;2023-04-29T09:01:09;6.97;;;5.13;;
62437;SDS011;48481;0.000;0.000;2023-04-29T09:03:43;8.00;;;4.72;;
62437;SDS011;48481;0.000;0.000;2023-04-29T09:06:14;6.93;;;4.68;;
62437;SDS011;48481;0.000;0.000;2023-04-29T09:08:40;14.95;;;5.35;;
62437;SDS011;48481;0.000;0.000;2023-04-29T09:11:09;6.20;;;4.97;;
62437;SDS011;48481;0.000;0.000;2023-04-29T09:13:36;7.20;;;4.55;;
62437;SDS011;48481;0.000;0.000;2023-04-29T09:16:01;6.85;;;4.43;;
62437;SDS011;48481;0.000;0.000;2023-04-29T09:21:15;8.98;;;4.55;;
62437;SDS011;48481;0.000;0.000;2023-04-29T09:23:45;5.45;;;4.90;;
62437;SDS011;48481;0.000;0.000;2023-04-29T09:26:15;8.93;;;4.55;;
62437;SDS011;48481;0.000;0.000;2023-04-29T09:28:40;7.50;;;4.40;;
62437;SDS011;48481;0.000;0.000;2023-04-29T09:31:08;10.25;;;4.75;;
62437;SDS011;48481;0.000;0.000;2023-04-29T09:33:51;6.63;;;4.15;;
62437;SDS011;48481;0.000;0.000;2023-04-29T09:39:09;7.30;;;4.93;;
62437;SDS011;48481;0.000;0.000;2023-04-29T09:41:39;6.35;;;4.40;;
62437;SDS011;48481;0.000;0.000;2023-04-29T09:44:17;6.28;;;4.32;;
62437;SDS011;48481;0.000;0.000;2023-04-29T09:47:28;5.65;;;3.40;;
62437;SDS011;48481;0.000;0.000;2023-04-29T09:49:37;6.00;;;3.78;;
62437;SDS011;48481;0.000;0.000;2023-04-29T09:52:09;4.60;;;4.15;;
62437;SDS011;48481;0.000;0.000;2023-04-29T09:54:36;7.38;;;3.92;;
62437;SDS011;48481;0.000;0.000;2023-04-29T09:57:05;6.82;;;4.03;;
62437;SDS011;48481;0.000;0.000;2023-04-29T09:59:33;5.75;;;3.85;;
62437;SDS011;48481;0.000;0.000;2023-04-29T10:02:00;10.07;;;3.90;;
62437;SDS011;48481;0.000;0.000;2023-04-29T10:04:27;9.18;;;4.10;;
62437;SDS011;48481;0.000;0.000;2023-04-29T10:06:56;6.75;;;3.33;;
62437;SDS011;48481;0.000;0.000;2023-04-29T10:09:22;4.18;;;3.72;;
62437;SDS011;48481;0.000;0.000;2023-04-29T10:11:48;8.32;;;3.83;;
62437;SDS011;48481;0.000;0.000;2023-04-29T10:14:15;8.27;;;4.72;;
62437;SDS011;48481;0.000;0.000;2023-04-29T10:16:46;5.88;;;3.70;;
62437;SDS011;48481;0.000;0.000;2023-04-29T10:19:14;4.93;;;3.47;;
62437;SDS011;48481;0.000;0.000;2023-04-29T10:21:43;7.18;;;3.60;;
62437;SDS011;48481;0.000;0.000;2023-04-29T10:24:09;4.10;;;3.45;;
62437;SDS011;48481;0.000;0.000;2023-04-29T10:26:36;7.43;;;4.10;;
62437;SDS011;48481;0.000;0.000;2023-04-29T10:29:03;5.45;;;3.78;;
62437;SDS011;48481;0.000;0.000;2023-04-29T10:31:29;5.72;;;3.30;;
62437;SDS011;48481;0.000;0.000;2023-04-29T10:33:56;6.80;;;4.28;;
62437;SDS011;48481;0.000;0.000;2023-04-29T10:36:24;7.75;;;3.42;;
62437;SDS011;48481;0.000;0.000;2023-04-29T10:38:52;10.05;;;4.03;;
62437;SDS011;48481;0.000;0.000;2023-04-29T10:41:20;12.95;;;4.20;;
62437;SDS011;48481;0.000;0.000;2023-04-29T10:43:52;5.68;;;4.00;;
62437;SDS011;48481;0.000;0.000;2023-04-29T10:46:22;5.82;;;4.28;;
62437;SDS011;48481;0.000;0.000;2023-04-29T10:48:54;4.40;;;3.88;;
62437;SDS011;48481;0.000;0.000;2023-04-29T10:54:00;12.68;;;4.63;;
62437;SDS011;48481;0.000;0.000;2023-04-29T10:56:34;5.63;;;3.67;;
62437;SDS011;48481;0.000;0.000;2023-04-29T10:59:03;7.78;;;4.10;;
62437;SDS011;48481;0.000;0.000;2023-04-29T11:04:11;6.32;;;4.38;;
62437;SDS011;48481;0.000;0.000;2023-04-29T11:06:38;4.80;;;4.30;;
62437;SDS011;48481;0.000;0.000;2023-04-29T11:17:01;8.68;;;5.22;;
62437;SDS011;48481;0.000;0.000;2023-04-29T11:19:35;17.38;;;4.97;;
62437;SDS011;48481;0.000;0.000;2023-04-29T11:25:04;10.32;;;6.40;;
62437;SDS011;48481;0.000;0.000;2023-04-29T11:27:31;9.70;;;5.35;;
62437;SDS011;48481;0.000;0.000;2023-04-29T11:29:59;6.50;;;4.75;;
62437;SDS011;48481;0.000;0.000;2023-04-29T11:32:26;5.32;;;4.75;;
62437;SDS011;48481;0.000;0.000;2023-04-29T11:34:53;6.68;;;5.28;;
62437;SDS011;48481;0.000;0.000;2023-04-29T11:37:19;7.65;;;4.75;;
62437;SDS011;48481;0.000;0.000;2023-04-29T11:39:45;8.18;;;5.20;;
62437;SDS011;48481;0.000;0.000;2023-04-29T11:42:11;5.97;;;4.72;;
62437;SDS011;48481;0.000;0.000;2023-04-29T11:44:37;12.55;;;4.93;;
62437;SDS011;48481;0.000;0.000;2023-04-29T11:47:03;7.32;;;4.28;;
62437;SDS011;48481;0.000;0.000;2023-04-29T11:49:29;11.13;;;4.82;;
62437;SDS011;48481;0.000;0.000;2023-04-29T11:51:58;5.47;;;4.35;;
62437;SDS011;48481;0.000;0.000;2023-04-29T11:54:25;11.60;;;4.60;;
62437;SDS011;48481;0.000;0.000;2023-04-29T11:56:54;5.38;;;3.92;;
62437;SDS011;48481;0.000;0.000;2023-04-29T11:59:21;6.70;;;3.95;;
62437;SDS011;48481;0.000;0.000;2023-04-29T12:01:49;8.00;;;5.10;;
62437;SDS011;48481;0.000;0.000;2023-04-29T12:04:15;8.32;;;4.45;;
62437;SDS011;48481;0.000;0.000;2023-04-29T12:06:41;5.22;;;4.72;;
62437;SDS011;48481;0.000;0.000;2023-04-29T12:09:06;5.88;;;5.10;;
62437;SDS011;48481;0.000;0.000;2023-04-29T12:11:32;7.22;;;5.03;;
62437;SDS011;48481;0.000;0.000;2023-04-29T12:13:59;10.50;;;5.50;;
62437;SDS011;48481;0.000;0.000;2023-04-29T12:16:26;5.30;;;4.65;;
62437;SDS011;48481;0.000;0.000;2023-04-29T12:18:53;4.95;;;4.45;;
62437;SDS011;48481;0.000;0.000;2023-04-29T12:21:20;6.05;;;4.25;;
62437;SDS011;48481;0.000;0.000;2023-04-29T12:23:47;7.82;;;4.00;;
62437;SDS011;48481;0.000;0.000;2023-04-29T12:26:12;8.30;;;3.80;;
62437;SDS011;48481;0.000;0.000;2023-04-29T12:28:39;3.95;;;3.47;;
62437;SDS011;48481;0.000;0.000;2023-04-29T12:31:07;5.85;;;4.22;;
62437;SDS011;48481;0.000;0.000;2023-04-29T12:33:35;7.10;;;5.05;;
62437;SDS011;48481;0.000;0.000;2023-04-29T12:36:01;4.80;;;4.40;;
62437;SDS011;48481;0.000;0.000;2023-04-29T12:38:27;4.95;;;3.53;;
62437;SDS011;48481;0.000;0.000;2023-04-29T12:40:55;8.10;;;3.33;;
62437;SDS011;48481;0.000;0.000;2023-04-29T12:43:28;4.95;;;3.33;;
62437;SDS011;48481;0.000;0.000;2023-04-29T12:46:04;4.50;;;3.22;;
62437;SDS011;48481;0.000;0.000;2023-04-29T12:48:32;5.07;;;3.92;;
62437;SDS011;48481;0.000;0.000;2023-04-29T12:50:58;4.35;;;2.63;;
62437;SDS011;48481;0.000;0.000;2023-04-29T12:53:24;6.40;;;3.42;;
62437;SDS011;48481;0.000;0.000;2023-04-29T12:55:51;4.10;;;3.40;;
62437;SDS011;48481;0.000;0.000;2023-04-29T12:58:17;7.43;;;3.55;;
62437;SDS011;48481;0.000;0.000;2023-04-29T13:00:42;7.68;;;3.90;;
62437;SDS011;48481;0.000;0.000;2023-04-29T13:03:07;7.38;;;3.78;;
62437;SDS011;48481;0.000;0.000;2023-04-29T13:05:33;4.88;;;3.67;;
62437;SDS011;48481;0.000;0.000;2023-04-29T13:07:58;3.97;;;3.15;;
62437;SDS011;48481;0.000;0.000;2023-04-29T13:10:24;5.93;;;3.55;;
62437;SDS011;48481;0.000;0.000;2023-04-29T13:12:49;7.75;;;3.30;;
62437;SDS011;48481;0.000;0.000;2023-04-29T13:15:15;4.07;;;3.13;;
62437;SDS011;48481;0.000;0.000;2023-04-29T13:17:40;4.50;;;3.95;;
62437;SDS011;48481;0.000;0.000;2023-04-29T13:20:06;4.28;;;3.60;;
62437;SDS011;48481;0.000;0.000;2023-04-29T13:22:32;5.68;;;3.20;;
62437;SDS011;48481;0.000;0.000;2023-04-29T13:24:58;5.35;;;3.08;;
62437;SDS011;48481;0.000;0.000;2023-04-29T13:27:23;4.45;;;2.90;;
62437;SDS011;48481;0.000;0.000;2023-04-29T13:29:48;4.47;;;2.83;;
62437;SDS011;48481;0.000;0.000;2023-04-29T13:32:14;9.25;;;2.70;;
62437;SDS011;48481;0.000;0.000;2023-04-29T13:34:40;4.35;;;2.97;;
62437;SDS011;48481;0.000;0.000;2023-04-29T13:37:07;5.93;;;2.50;;
62437;SDS011;48481;0.000;0.000;2023-04-29T13:39:33;7.53;;;2.70;;
62437;SDS011;48481;0.000;0.000;2023-04-29T13:41:58;2.97;;;2.22;;
62437;SDS011;48481;0.000;0.000;2023-04-29T13:44:24;1.98;;;1.77;;
62437;SDS011;48481;0.000;0.000;2023-04-29T13:46:49;1.92;;;1.70;;
62437;SDS011;48481;0.000;0.000;2023-04-29T13:49:15;3.63;;;1.90;;
62437;SDS011;48481;0.000;0.000;2023-04-29T13:51:41;2.55;;;1.63;;
62437;SDS011;48481;0.000;0.000;2023-04-29T13:54:06;1.80;;;1.48;;
62437;SDS011;48481;0.000;0.000;2023-04-29T13:56:32;3.70;;;1.67;;
62437;SDS011;48481;0.000;0.000;2023-04-29T13:58:57;5.32;;;2.05;;
62437;SDS011;48481;0.000;0.000;2023-04-29T14:01:23;6.88;;;1.60;;
62437;SDS011;48481;0.000;0.000;2023-04-29T14:03:48;4.43;;;1.30;;
62437;SDS011;48481;0.000;0.000;2023-04-29T14:06:13;6.25;;;2.72;;
62437;SDS011;48481;0.000;0.000;2023-04-29T14:08:39;4.82;;;3.00;;
62437;SDS011;48481;0.000;0.000;2023-04-29T14:11:05;2.83;;;1.95;;
62437;SDS011;48481;0.000;0.000;2023-04-29T14:13:31;4.70;;;2.17;;
62437;SDS011;48481;0.000;0.000;2023-04-29T14:15:56;5.38;;;3.17;;
62437;SDS011;48481;0.000;0.000;2023-04-29T14:18:23;3.13;;;1.35;;
62437;SDS011;48481;0.000;0.000;2023-04-29T14:20:49;3.80;;;1.95;;
62437;SDS011;48481;0.000;0.000;2023-04-29T14:23:14;5.38;;;1.85;;
62437;SDS011;48481;0.000;0.000;2023-04-29T14:25:40;3.95;;;1.83;;
62437;SDS011;48481;0.000;0.000;2023-04-29T14:28:05;3.50;;;1.83;;
62437;SDS011;48481;0.000;0.000;2023-04-29T14:30:30;3.67;;;1.83;;
62437;SDS011;48481;0.000;0.000;2023-04-29T14:32:56;5.15;;;2.08;;
62437;SDS011;48481;0.000;0.000;2023-04-29T14:35:21;4.00;;;2.08;;
62437;SDS011;48481;0.000;0.000;2023-04-29T14:37:47;6.32;;;1.90;;
62437;SDS011;48481;0.000;0.000;2023-04-29T14:40:12;2.78;;;1.63;;
62437;SDS011;48481;0.000;0.000;2023-04-29T14:42:37;4.10;;;1.83;;
62437;SDS011;48481;0.000;0.000;2023-04-29T14:45:03;4.65;;;1.65;;
62437;SDS011;48481;0.000;0.000;2023-04-29T14:47:29;2.63;;;1.88;;
62437;SDS011;48481;0.000;0.000;2023-04-29T14:49:54;4.60;;;1.92;;
62437;SDS011;48481;0.000;0.000;2023-04-29T14:52:20;2.35;;;2.15;;
62437;SDS011;48481;0.000;0.000;2023-04-29T14:54:45;4.00;;;2.30;;
62437;SDS011;48481;0.000;0.000;2023-04-29T14:57:11;3.22;;;1.90;;
62437;SDS011;48481;0.000;0.000;2023-04-29T14:59:36;6.53;;;1.60;;
62437;SDS011;48481;0.000;0.000;2023-04-29T15:02:02;5.75;;;1.42;;
62437;SDS011;48481;0.000;0.000;2023-04-29T15:04:27;1.50;;;1.40;;
62437;SDS011;48481;0.000;0.000;2023-04-29T15:06:53;2.15;;;1.70;;
62437;SDS011;48481;0.000;0.000;2023-04-29T15:09:18;3.08;;;1.10;;
62437;SDS011;48481;0.000;0.000;2023-04-29T15:11:44;2.35;;;1.33;;
62437;SDS011;48481;0.000;0.000;2023-04-29T15:14:09;1.77;;;1.20;;
62437;SDS011;48481;0.000;0.000;2023-04-29T15:16:34;1.30;;;1.20;;
62437;SDS011;48481;0.000;0.000;2023-04-29T15:19:00;3.75;;;1.15;;
62437;SDS011;48481;0.000;0.000;2023-04-29T15:21:26;1.63;;;1.50;;
62437;SDS011;48481;0.000;0.000;2023-04-29T15:23:51;2.75;;;1.30;;
62437;SDS011;48481;0.000;0.000;2023-04-29T15:26:17;2.47;;;1.48;;